createdAt,value
2018-07-09T00:01:06.105Z,15.30
2018-07-09T00:03:33.746Z,15.56
2018-07-09T00:06:01.698Z,15.36
2018-07-09T00:08:29.408Z,15.26
2018-07-09T00:11:06.073Z,15.28
2018-07-09T00:13:34.831Z,15.29
2018-07-09T00:16:02.754Z,15.11
2018-07-09T00:18:30.536Z,14.97
2018-07-09T00:20:58.246Z,14.89
2018-07-09T00:23:26.014Z,14.59
2018-07-09T00:25:54.474Z,14.62
2018-07-09T00:28:22.630Z,14.57
2018-07-09T00:30:50.367Z,14.64
2018-07-09T00:33:18.651Z,14.50
2018-07-09T00:35:46.847Z,14.34
2018-07-09T00:38:14.662Z,14.31
2018-07-09T00:40:42.410Z,14.41
2018-07-09T00:43:10.167Z,14.43
2018-07-09T00:45:37.850Z,14.28
2018-07-09T00:48:05.703Z,14.20
2018-07-09T00:50:34.250Z,14.07
2018-07-09T00:53:01.958Z,14.30
2018-07-09T00:55:30.313Z,14.27
2018-07-09T00:57:58.023Z,14.19
2018-07-09T01:00:25.692Z,14.13
2018-07-09T01:02:53.478Z,14.08
2018-07-09T01:05:21.199Z,14.18
2018-07-09T01:07:48.939Z,13.94
2018-07-09T01:10:17.593Z,13.87
2018-07-09T01:12:45.314Z,13.91
2018-07-09T01:15:13.434Z,13.99
2018-07-09T01:17:41.146Z,14.07
2018-07-09T01:20:08.859Z,14.23
2018-07-09T01:22:36.646Z,13.99
2018-07-09T01:25:04.500Z,13.78
2018-07-09T01:27:32.292Z,13.72
2018-07-09T01:30:05.968Z,13.76
2018-07-09T01:32:33.813Z,13.75
2018-07-09T01:35:01.533Z,13.71
2018-07-09T01:37:29.430Z,13.93
2018-07-09T01:39:57.148Z,13.84
2018-07-09T01:42:25.418Z,13.73
2018-07-09T01:44:53.085Z,13.84
2018-07-09T01:47:20.854Z,13.82
2018-07-09T01:49:48.630Z,13.77
2018-07-09T01:52:16.789Z,13.71
2018-07-09T01:54:44.586Z,13.72
2018-07-09T01:57:12.258Z,13.65
2018-07-09T01:59:39.965Z,13.89
2018-07-09T02:02:08.633Z,13.82
2018-07-09T02:04:36.397Z,13.70
2018-07-09T02:07:04.326Z,13.83
2018-07-09T02:09:32.041Z,13.67
2018-07-09T02:11:59.783Z,13.59
2018-07-09T02:14:27.482Z,13.51
2018-07-09T02:16:55.154Z,13.40
2018-07-09T02:19:22.827Z,13.38
2018-07-09T02:21:50.502Z,13.35
2018-07-09T02:24:18.758Z,13.40
2018-07-09T02:26:46.459Z,13.59
2018-07-09T02:29:14.198Z,13.37
2018-07-09T02:31:41.899Z,13.46
2018-07-09T02:34:09.593Z,13.30
2018-07-09T02:36:37.283Z,13.14
2018-07-09T02:39:05.671Z,13.17
2018-07-09T02:41:33.424Z,13.14
2018-07-09T02:44:01.151Z,13.26
2018-07-09T02:46:28.833Z,13.30
2018-07-09T02:48:56.523Z,13.38
2018-07-09T02:51:24.638Z,13.25
2018-07-09T02:53:52.786Z,13.11
2018-07-09T02:56:20.464Z,12.97
2018-07-09T02:58:48.246Z,12.84
2018-07-09T03:01:16.056Z,12.96
2018-07-09T03:03:43.623Z,12.85
2018-07-09T03:06:11.339Z,12.79
2018-07-09T03:08:39.022Z,12.77
2018-07-09T03:11:06.738Z,12.71
2018-07-09T03:13:34.511Z,12.71
2018-07-09T03:16:02.228Z,12.71
2018-07-09T03:18:29.940Z,12.78
2018-07-09T03:20:57.632Z,12.59
2018-07-09T03:23:25.387Z,12.57
2018-07-09T03:25:53.474Z,12.59
2018-07-09T03:28:21.128Z,12.62
2018-07-09T03:30:49.152Z,12.65
2018-07-09T03:33:16.890Z,12.60
2018-07-09T03:35:45.283Z,12.59
2018-07-09T03:38:13.017Z,12.62
2018-07-09T03:40:40.762Z,12.63
2018-07-09T03:43:08.531Z,12.58
2018-07-09T03:45:36.249Z,12.58
2018-07-09T03:48:04.142Z,12.62
2018-07-09T03:50:32.170Z,12.65
2018-07-09T03:52:59.887Z,12.71
2018-07-09T03:55:27.622Z,12.70
2018-07-09T03:57:55.311Z,12.82
2018-07-09T04:00:23.109Z,12.87
2018-07-09T04:02:50.832Z,12.94
2018-07-09T04:05:18.560Z,12.95
2018-07-09T04:07:46.347Z,13.03
2018-07-09T04:10:14.178Z,13.03
2018-07-09T04:12:41.874Z,13.04
2018-07-09T04:15:09.621Z,13.17
2018-07-09T04:17:37.379Z,13.22
2018-07-09T04:20:05.112Z,13.37
2018-07-09T04:22:32.802Z,13.35
2018-07-09T04:25:00.486Z,13.58
2018-07-09T04:27:28.174Z,13.53
2018-07-09T04:29:55.837Z,13.64
2018-07-09T04:32:23.533Z,13.88
2018-07-09T04:34:51.225Z,14.02
2018-07-09T04:37:18.941Z,13.86
2018-07-09T04:39:46.630Z,14.35
2018-07-09T04:42:14.290Z,14.30
2018-07-09T04:44:42.247Z,14.35
2018-07-09T04:47:10.826Z,14.33
2018-07-09T04:49:38.472Z,14.56
2018-07-09T04:52:06.243Z,14.86
2018-07-09T04:54:33.942Z,14.97
2018-07-09T04:57:02.903Z,15.24
2018-07-09T04:59:30.601Z,15.42
2018-07-09T05:01:58.291Z,15.53
2018-07-09T05:04:26.182Z,15.78
2018-07-09T05:06:53.928Z,16.02
2018-07-09T05:09:21.584Z,16.22
2018-07-09T05:11:49.516Z,16.32
2018-07-09T05:14:17.186Z,16.52
2018-07-09T05:16:44.838Z,16.70
2018-07-09T05:19:12.519Z,16.74
2018-07-09T05:21:40.242Z,17.00
2018-07-09T05:24:07.907Z,17.14
2018-07-09T05:26:36.021Z,17.49
2018-07-09T05:29:03.885Z,17.44
2018-07-09T05:31:31.586Z,17.72
2018-07-09T05:33:59.475Z,17.78
2018-07-09T05:36:27.139Z,18.00
2018-07-09T05:38:55.300Z,18.14
2018-07-09T05:41:23.105Z,18.47
2018-07-09T05:43:50.978Z,18.57
2018-07-09T05:46:18.703Z,18.88
2018-07-09T05:48:46.497Z,19.05
2018-07-09T05:51:14.219Z,19.35
2018-07-09T05:53:41.943Z,19.47
2018-07-09T05:56:09.634Z,19.83
2018-07-09T05:58:37.389Z,19.80
2018-07-09T06:01:05.101Z,20.20
2018-07-09T06:03:32.854Z,20.58
2018-07-09T06:06:00.591Z,20.94
2018-07-09T06:08:28.302Z,21.07
2018-07-09T06:10:56.018Z,20.98
2018-07-09T06:13:23.718Z,21.38
2018-07-09T06:15:51.467Z,21.51
2018-07-09T06:18:19.950Z,21.62
2018-07-09T06:20:47.655Z,21.81
2018-07-09T06:23:15.462Z,21.95
2018-07-09T06:25:43.151Z,22.05
2018-07-09T06:28:10.867Z,22.10
2018-07-09T06:30:38.596Z,22.36
2018-07-09T06:33:06.640Z,22.67
2018-07-09T06:35:34.308Z,22.79
2018-07-09T06:38:02.098Z,23.14
2018-07-09T06:40:29.791Z,23.33
2018-07-09T06:42:57.516Z,23.38
2018-07-09T06:45:25.198Z,23.68
2018-07-09T06:47:52.898Z,23.97
2018-07-09T06:50:20.586Z,24.18
2018-07-09T06:52:48.310Z,24.47
2018-07-09T06:55:16.004Z,24.31
2018-07-09T06:57:43.715Z,24.62
2018-07-09T07:00:11.451Z,25.10
2018-07-09T07:02:39.256Z,25.44
2018-07-09T07:05:07.046Z,25.38
2018-07-09T07:07:34.777Z,25.32
2018-07-09T07:10:02.551Z,25.90
2018-07-09T07:12:30.287Z,26.09
2018-07-09T07:14:57.999Z,26.29
2018-07-09T07:17:25.693Z,26.62
2018-07-09T07:19:53.483Z,26.40
2018-07-09T07:22:21.259Z,26.58
2018-07-09T07:24:48.975Z,26.90
2018-07-09T07:27:16.733Z,27.32
2018-07-09T07:29:44.583Z,27.61
2018-07-09T07:32:12.575Z,27.83
2018-07-09T07:34:40.302Z,27.95
2018-07-09T07:37:08.065Z,27.98
2018-07-09T07:39:35.777Z,28.40
2018-07-09T07:42:03.511Z,28.57
2018-07-09T07:44:31.248Z,28.82
2018-07-09T07:46:58.943Z,28.79
2018-07-09T07:49:26.672Z,29.34
2018-07-09T07:51:54.927Z,29.61
2018-07-09T07:54:22.948Z,29.76
2018-07-09T07:56:50.620Z,29.64
2018-07-09T07:59:18.359Z,30.20
2018-07-09T08:01:46.053Z,30.29
2018-07-09T08:04:13.751Z,30.68
2018-07-09T08:06:41.482Z,31.06
2018-07-09T08:09:09.166Z,30.37
2018-07-09T08:11:48.562Z,30.52
2018-07-09T08:14:04.823Z,30.88
2018-07-09T08:16:32.522Z,31.58
2018-07-09T08:19:00.251Z,31.46
2018-07-09T08:21:27.946Z,32.00
2018-07-09T08:23:55.671Z,32.49
2018-07-09T08:26:23.396Z,32.47
2018-07-09T08:28:51.289Z,33.14
2018-07-09T08:31:19.056Z,32.23
2018-07-09T08:33:46.744Z,32.07
2018-07-09T08:36:14.466Z,32.36
2018-07-09T08:38:42.178Z,33.17
2018-07-09T08:41:09.906Z,32.88
2018-07-09T08:43:37.582Z,32.75
2018-07-09T08:46:05.334Z,33.02
2018-07-09T08:48:33.050Z,33.81
2018-07-09T08:51:00.730Z,33.85
2018-07-09T08:53:28.475Z,34.25
2018-07-09T08:55:56.198Z,33.60
2018-07-09T08:58:23.922Z,33.18
2018-07-09T09:00:51.715Z,33.96
2018-07-09T09:03:19.395Z,33.65
2018-07-09T09:05:47.071Z,33.66
2018-07-09T09:08:14.816Z,33.62
2018-07-09T09:10:42.580Z,34.20
2018-07-09T09:13:10.300Z,33.90
2018-07-09T09:15:37.982Z,33.98
2018-07-09T09:18:05.771Z,34.22
2018-07-09T09:20:33.466Z,33.35
2018-07-09T09:23:01.259Z,33.10
2018-07-09T09:25:29.053Z,33.18
2018-07-09T09:27:56.758Z,33.36
2018-07-09T09:30:24.412Z,33.50
2018-07-09T09:32:52.147Z,34.20
2018-07-09T09:35:19.815Z,33.72
2018-07-09T09:37:47.575Z,34.00
2018-07-09T09:40:15.303Z,34.30
2018-07-09T09:42:43.042Z,34.09
2018-07-09T09:45:10.802Z,33.51
2018-07-09T09:47:38.516Z,32.97
2018-07-09T09:50:06.278Z,32.93
2018-07-09T09:52:34.488Z,33.08
2018-07-09T09:55:02.232Z,33.43
2018-07-09T09:57:29.935Z,33.49
2018-07-09T09:59:57.631Z,32.63
2018-07-09T10:02:25.350Z,32.50
2018-07-09T10:04:53.066Z,32.43
2018-07-09T10:07:20.798Z,32.52
2018-07-09T10:09:48.799Z,32.97
2018-07-09T10:12:16.487Z,32.96
2018-07-09T10:14:44.202Z,33.50
2018-07-09T10:17:11.915Z,34.42
2018-07-09T10:19:40.890Z,34.09
2018-07-09T10:22:08.643Z,33.88
2018-07-09T10:24:36.355Z,33.39
2018-07-09T10:27:04.163Z,34.05
2018-07-09T10:29:31.845Z,34.24
2018-07-09T10:31:59.558Z,34.45
2018-07-09T10:34:27.277Z,33.90
2018-07-09T10:36:54.993Z,33.83
2018-07-09T10:39:22.708Z,33.40
2018-07-09T10:41:50.428Z,33.45
2018-07-09T10:44:18.150Z,33.83
2018-07-09T10:46:45.826Z,33.68
2018-07-09T10:49:13.540Z,33.69
2018-07-09T10:51:41.264Z,33.88
2018-07-09T10:54:09.230Z,34.51
2018-07-09T10:56:36.967Z,34.63
2018-07-09T10:59:04.659Z,35.00
2018-07-09T11:01:32.410Z,34.13
2018-07-09T11:04:00.146Z,34.30
2018-07-09T11:06:28.100Z,34.84
2018-07-09T11:08:55.791Z,33.94
2018-07-09T11:11:23.489Z,34.40
2018-07-09T11:13:51.661Z,34.20
2018-07-09T11:16:19.409Z,32.65
2018-07-09T11:18:47.157Z,32.35
2018-07-09T11:21:15.115Z,32.38
2018-07-09T11:23:42.812Z,32.04
2018-07-09T11:26:10.522Z,30.99
2018-07-09T11:28:38.281Z,30.64
2018-07-09T11:31:05.944Z,30.61
2018-07-09T11:33:33.681Z,30.71
2018-07-09T11:36:01.435Z,30.82
2018-07-09T11:38:29.106Z,31.05
2018-07-09T11:40:56.858Z,30.50
2018-07-09T11:43:24.561Z,30.13
2018-07-09T11:45:52.292Z,29.93
2018-07-09T11:48:19.962Z,29.64
2018-07-09T11:50:57.864Z,29.44
2018-07-09T11:53:25.554Z,29.32
2018-07-09T11:55:53.246Z,29.51
2018-07-09T11:58:21.172Z,29.85
2018-07-09T12:00:48.868Z,29.76
2018-07-09T12:03:16.594Z,29.46
2018-07-09T12:05:44.261Z,29.29
2018-07-09T12:08:11.942Z,29.35
2018-07-09T12:10:39.646Z,29.79
2018-07-09T12:13:07.561Z,29.55
2018-07-09T12:15:35.231Z,29.96
2018-07-09T12:18:02.903Z,30.05
2018-07-09T12:20:30.928Z,30.19
2018-07-09T12:22:58.656Z,29.36
2018-07-09T12:25:26.355Z,29.57
2018-07-09T12:27:54.128Z,29.29
2018-07-09T12:30:21.855Z,29.11
2018-07-09T12:32:49.567Z,29.04
2018-07-09T12:35:17.244Z,28.83
2018-07-09T12:37:44.964Z,28.76
2018-07-09T12:40:12.643Z,28.57
2018-07-09T12:42:40.414Z,28.31
2018-07-09T12:45:08.103Z,28.06
2018-07-09T12:47:35.843Z,27.69
2018-07-09T12:50:03.544Z,27.53
2018-07-09T12:52:31.311Z,27.39
2018-07-09T12:54:58.971Z,27.24
2018-07-09T12:57:26.652Z,27.39
2018-07-09T12:59:54.359Z,27.32
2018-07-09T13:02:22.054Z,27.56
2018-07-09T13:04:49.775Z,27.43
2018-07-09T13:07:17.435Z,27.61
2018-07-09T13:09:45.151Z,27.43
2018-07-09T13:12:17.527Z,27.08
2018-07-09T13:14:45.238Z,26.80
2018-07-09T13:17:12.947Z,26.35
2018-07-09T13:19:40.735Z,26.27
2018-07-09T13:22:08.454Z,26.30
2018-07-09T13:24:36.073Z,26.67
2018-07-09T13:27:03.798Z,26.74
2018-07-09T13:29:31.822Z,26.74
2018-07-09T13:31:59.583Z,27.00
2018-07-09T13:34:27.380Z,26.97
2018-07-09T13:36:55.183Z,27.05
2018-07-09T13:39:22.878Z,26.70
2018-07-09T13:41:50.538Z,26.76
2018-07-09T13:44:18.323Z,26.84
2018-07-09T13:46:46.086Z,26.74
2018-07-09T13:49:13.815Z,26.79
2018-07-09T13:51:41.533Z,26.62
2018-07-09T13:54:09.216Z,26.63
2018-07-09T13:56:36.906Z,26.71
2018-07-09T13:59:04.706Z,26.75
2018-07-09T14:01:32.409Z,26.79
2018-07-09T14:04:00.133Z,26.79
2018-07-09T14:06:27.825Z,26.65
2018-07-09T14:08:55.563Z,26.68
2018-07-09T14:11:23.319Z,26.68
2018-07-09T14:13:51.086Z,26.34
2018-07-09T14:16:18.755Z,26.18
2018-07-09T14:18:46.452Z,26.04
2018-07-09T14:21:15.606Z,26.13
2018-07-09T14:23:44.121Z,26.21
2018-07-09T14:26:13.395Z,26.20
2018-07-09T14:28:41.118Z,26.24
2018-07-09T14:31:08.854Z,26.47
2018-07-09T14:33:36.486Z,26.10
2018-07-09T14:36:04.482Z,26.11
2018-07-09T14:38:32.151Z,25.79
2018-07-09T14:40:59.885Z,25.79
2018-07-09T14:43:27.581Z,25.77
2018-07-09T14:45:55.230Z,25.64
2018-07-09T14:48:22.951Z,25.67
2018-07-09T14:50:50.631Z,25.44
2018-07-09T14:53:18.284Z,25.48
2018-07-09T14:55:45.969Z,25.56
2018-07-09T14:58:13.655Z,25.66
2018-07-09T15:00:43.218Z,25.74
2018-07-09T15:03:10.940Z,25.80
2018-07-09T15:05:38.591Z,25.92
2018-07-09T15:08:06.282Z,26.04
2018-07-09T15:10:33.912Z,25.98
2018-07-09T15:13:01.621Z,25.93
2018-07-09T15:15:29.281Z,26.01
2018-07-09T15:17:56.978Z,25.78
2018-07-09T15:20:24.630Z,25.77
2018-07-09T15:22:52.397Z,25.78
2018-07-09T15:25:20.112Z,25.74
2018-07-09T15:27:47.739Z,25.78
2018-07-09T15:30:15.388Z,25.78
2018-07-09T15:32:43.079Z,25.77
2018-07-09T15:35:12.554Z,25.79
2018-07-09T15:37:40.210Z,25.65
2018-07-09T15:40:07.878Z,25.67
2018-07-09T15:42:35.689Z,25.63
2018-07-09T15:45:03.457Z,25.60
2018-07-09T15:47:33.691Z,25.71
2018-07-09T15:50:01.333Z,25.64
2018-07-09T15:52:28.961Z,25.64
2018-07-09T15:54:56.626Z,25.44
2018-07-09T15:57:24.285Z,25.38
2018-07-09T15:59:51.933Z,25.33
2018-07-09T16:02:20.218Z,25.10
2018-07-09T16:04:47.950Z,25.08
2018-07-09T16:07:15.597Z,25.06
2018-07-09T16:09:43.279Z,25.05
2018-07-09T16:12:10.916Z,25.05
2018-07-09T16:14:38.608Z,25.10
2018-07-09T16:17:06.363Z,25.03
2018-07-09T16:19:34.034Z,24.93
2018-07-09T16:22:01.747Z,24.83
2018-07-09T16:24:29.438Z,24.89
2018-07-09T16:26:57.192Z,24.90
2018-07-09T16:29:25.054Z,24.99
2018-07-09T16:31:52.525Z,24.91
2018-07-09T16:34:20.167Z,24.92
2018-07-09T16:36:47.794Z,24.88
2018-07-09T16:39:15.398Z,24.96
2018-07-09T16:41:43.062Z,24.79
2018-07-09T16:44:10.761Z,24.82
2018-07-09T16:46:38.460Z,24.75
2018-07-09T16:49:06.107Z,24.82
2018-07-09T16:51:33.826Z,24.76
2018-07-09T16:54:01.503Z,24.77
2018-07-09T16:56:29.190Z,24.63
2018-07-09T16:58:56.851Z,24.53
2018-07-09T17:01:24.518Z,24.60
2018-07-09T17:03:53.014Z,24.63
2018-07-09T17:06:20.680Z,24.65
2018-07-09T17:08:49.776Z,24.60
2018-07-09T17:11:17.415Z,24.69
2018-07-09T17:13:45.377Z,24.74
2018-07-09T17:16:13.208Z,24.66
2018-07-09T17:18:40.892Z,24.58
2018-07-09T17:21:08.547Z,24.65
2018-07-09T17:23:36.182Z,24.67
2018-07-09T17:26:04.480Z,24.51
2018-07-09T17:28:32.106Z,24.63
2018-07-09T17:30:59.926Z,24.43
2018-07-09T17:33:27.643Z,24.50
2018-07-09T17:35:55.294Z,24.40
2018-07-09T17:38:22.981Z,24.43
2018-07-09T17:40:50.644Z,24.26
2018-07-09T17:43:18.666Z,24.15
2018-07-09T17:45:47.748Z,24.08
2018-07-09T17:48:16.458Z,23.96
2018-07-09T17:50:44.195Z,23.87
2018-07-09T17:53:11.865Z,23.96
2018-07-09T17:55:39.541Z,23.89
2018-07-09T17:58:07.254Z,23.77
2018-07-09T18:00:36.466Z,23.63
2018-07-09T18:03:04.208Z,23.59
2018-07-09T18:05:31.888Z,23.57
2018-07-09T18:07:59.555Z,23.61
2018-07-09T18:10:27.277Z,23.61
2018-07-09T18:12:55.126Z,23.47
2018-07-09T18:15:22.766Z,23.47
2018-07-09T18:17:50.441Z,23.45
2018-07-09T18:20:18.522Z,23.39
2018-07-09T18:22:46.187Z,23.29
2018-07-09T18:25:13.926Z,23.29
2018-07-09T18:27:41.692Z,23.23
2018-07-09T18:30:09.336Z,23.15
2018-07-09T18:32:37.038Z,23.08
2018-07-09T18:35:04.741Z,23.08
2018-07-09T18:37:32.617Z,23.00
2018-07-09T18:40:00.301Z,22.78
2018-07-09T18:42:27.962Z,22.75
2018-07-09T18:44:55.640Z,22.68
2018-07-09T18:47:23.338Z,22.76
2018-07-09T18:49:51.022Z,22.62
2018-07-09T18:52:18.691Z,22.50
2018-07-09T18:54:46.411Z,22.48
2018-07-09T18:57:14.459Z,22.37
2018-07-09T18:59:42.123Z,22.35
2018-07-09T19:02:09.809Z,22.30
2018-07-09T19:04:38.042Z,22.23
2018-07-09T19:07:08.133Z,22.16
2018-07-09T19:09:36.479Z,22.26
2018-07-09T19:12:04.881Z,22.17
2018-07-09T19:14:34.998Z,22.13
2018-07-09T19:18:14.414Z,22.03
2018-07-09T19:21:16.761Z,22.00
2018-07-09T19:23:43.958Z,21.87
2018-07-09T19:26:11.120Z,21.80
2018-07-09T19:28:38.271Z,21.71
2018-07-09T19:31:05.331Z,21.71
2018-07-09T19:33:32.525Z,21.71
2018-07-09T19:35:59.694Z,21.63
2018-07-09T19:38:26.868Z,21.61
2018-07-09T19:40:56.183Z,21.56
2018-07-09T19:43:23.349Z,21.50
2018-07-09T19:45:50.737Z,21.56
2018-07-09T19:48:17.844Z,21.54
2018-07-09T19:50:45.406Z,21.47
2018-07-09T19:53:12.649Z,21.45
2018-07-09T19:55:40.346Z,21.46
2018-07-09T19:58:07.548Z,21.24
2018-07-09T20:00:35.557Z,21.17
2018-07-09T20:03:03.213Z,21.17
2018-07-09T20:05:31.743Z,21.11
2018-07-09T20:07:59.130Z,21.03
2018-07-09T20:10:31.955Z,20.94
2018-07-09T20:13:03.925Z,21.00
2018-07-09T20:15:36.729Z,20.96
2018-07-09T20:18:05.220Z,20.99
2018-07-09T20:20:33.470Z,20.95
2018-07-09T20:23:00.619Z,20.89
2018-07-09T20:25:28.746Z,20.87
2018-07-09T20:27:55.903Z,20.88
2018-07-09T20:30:23.953Z,20.72
2018-07-09T20:32:51.060Z,20.70
2018-07-09T20:35:18.211Z,20.64
2018-07-09T20:37:45.392Z,20.59
2018-07-09T20:40:12.664Z,20.52
2018-07-09T20:42:39.782Z,20.54
2018-07-09T20:45:06.945Z,20.46
2018-07-09T20:47:34.269Z,20.35
2018-07-09T20:50:01.479Z,20.39
2018-07-09T20:52:28.735Z,20.42
2018-07-09T20:54:55.898Z,20.41
2018-07-09T20:57:23.108Z,20.24
2018-07-09T20:59:51.163Z,20.30
2018-07-09T21:02:18.363Z,20.25
2018-07-09T21:04:45.583Z,20.20
2018-07-09T21:07:12.662Z,20.26
2018-07-09T21:09:39.771Z,20.16
2018-07-09T21:12:09.202Z,20.04
2018-07-09T21:14:36.290Z,20.11
2018-07-09T21:17:03.356Z,20.24
2018-07-09T21:19:30.426Z,20.19
2018-07-09T21:21:57.855Z,20.07
2018-07-09T21:24:24.956Z,19.97
2018-07-09T21:26:52.082Z,19.96
2018-07-09T21:29:19.231Z,19.98
2018-07-09T21:31:46.370Z,19.92
2018-07-09T21:34:13.476Z,19.82
2018-07-09T21:36:41.167Z,19.89
2018-07-09T21:39:08.299Z,19.84
2018-07-09T21:41:35.378Z,19.81
2018-07-09T21:44:02.470Z,19.87
2018-07-09T21:46:29.545Z,19.69
2018-07-09T21:48:56.622Z,19.88
2018-07-09T21:51:23.709Z,19.84
2018-07-09T21:53:50.778Z,19.56
2018-07-09T21:56:17.970Z,19.73
2018-07-09T21:58:45.036Z,19.75
2018-07-09T22:01:12.215Z,19.68
2018-07-09T22:03:39.210Z,19.61
2018-07-09T22:06:06.288Z,19.72
2018-07-09T22:08:33.393Z,19.58
2018-07-09T22:11:00.596Z,19.53
2018-07-09T22:13:27.678Z,19.55
2018-07-09T22:15:54.809Z,19.52
2018-07-09T22:18:21.867Z,19.51
2018-07-09T22:20:48.942Z,19.47
2018-07-09T22:23:16.046Z,19.41
2018-07-09T22:25:43.132Z,19.36
2018-07-09T22:28:10.214Z,19.35
2018-07-09T22:30:37.870Z,19.38
2018-07-09T22:33:05.528Z,19.35
2018-07-09T22:35:33.175Z,19.32
2018-07-09T22:38:00.806Z,19.28
2018-07-09T22:40:28.438Z,19.23
2018-07-09T22:42:56.182Z,19.22
2018-07-09T22:45:23.829Z,19.29
2018-07-09T22:47:51.503Z,19.12
2018-07-09T22:50:19.138Z,19.26
2018-07-09T22:52:46.759Z,18.92
2018-07-09T22:55:20.706Z,18.84
2018-07-09T22:57:48.350Z,18.89
2018-07-09T23:00:17.014Z,18.70
2018-07-09T23:02:46.178Z,18.76
2018-07-09T23:05:13.920Z,18.69
2018-07-09T23:07:41.644Z,18.62
2018-07-09T23:10:15.074Z,18.61
2018-07-09T23:13:15.743Z,18.57
2018-07-09T23:15:49.799Z,18.51
2018-07-09T23:18:23.298Z,18.41
2018-07-09T23:20:56.530Z,18.49
2018-07-09T23:23:23.701Z,18.34
2018-07-09T23:25:50.855Z,18.33
2018-07-09T23:28:18.019Z,18.49
2018-07-09T23:30:45.171Z,18.32
2018-07-09T23:33:12.315Z,18.20
2018-07-09T23:35:39.470Z,18.06
2018-07-09T23:38:06.699Z,18.02
2018-07-09T23:40:33.834Z,18.07
2018-07-09T23:43:00.994Z,18.03
2018-07-09T23:45:28.142Z,18.01
2018-07-09T23:47:55.354Z,18.11
2018-07-09T23:50:22.486Z,18.11
2018-07-09T23:52:49.642Z,18.11
2018-07-09T23:55:16.768Z,18.32
2018-07-09T23:57:53.990Z,18.20
